sensor_id;sensor_type;location;lat;lon;timestamp;P1;durP1;ratioP1;P2;durP2;ratioP2
44704;SDS011;30431;48.520;9.046;2024-03-07T00:00:47;40.65;;;27.50;;
44704;SDS011;30431;48.520;9.046;2024-03-07T00:03:14;38.13;;;26.25;;
44704;SDS011;30431;48.520;9.046;2024-03-07T00:05:43;38.33;;;28.10;;
44704;SDS011;30431;48.520;9.046;2024-03-07T00:08:15;38.88;;;28.25;;
44704;SDS011;30431;48.520;9.046;2024-03-07T00:10:42;42.75;;;28.02;;
44704;SDS011;30431;48.520;9.046;2024-03-07T00:13:12;41.10;;;29.15;;
44704;SDS011;30431;48.520;9.046;2024-03-07T00:15:39;39.47;;;27.05;;
44704;SDS011;30431;48.520;9.046;2024-03-07T00:18:08;41.75;;;27.98;;
44704;SDS011;30431;48.520;9.046;2024-03-07T00:20:39;41.55;;;27.85;;
44704;SDS011;30431;48.520;9.046;2024-03-07T00:23:11;35.22;;;26.38;;
44704;SDS011;30431;48.520;9.046;2024-03-07T00:25:38;38.55;;;27.65;;
44704;SDS011;30431;48.520;9.046;2024-03-07T00:28:05;37.75;;;25.83;;
44704;SDS011;30431;48.520;9.046;2024-03-07T00:30:35;37.38;;;26.23;;
44704;SDS011;30431;48.520;9.046;2024-03-07T00:33:04;35.47;;;26.33;;
44704;SDS011;30431;48.520;9.046;2024-03-07T00:35:37;38.00;;;27.10;;
44704;SDS011;30431;48.520;9.046;2024-03-07T00:38:06;39.35;;;26.92;;
44704;SDS011;30431;48.520;9.046;2024-03-07T00:40:35;38.35;;;27.38;;
44704;SDS011;30431;48.520;9.046;2024-03-07T00:43:04;38.05;;;26.65;;
44704;SDS011;30431;48.520;9.046;2024-03-07T00:45:34;37.63;;;26.80;;
44704;SDS011;30431;48.520;9.046;2024-03-07T00:48:00;39.47;;;25.67;;
44704;SDS011;30431;48.520;9.046;2024-03-07T00:50:28;36.42;;;25.38;;
44704;SDS011;30431;48.520;9.046;2024-03-07T00:52:57;35.30;;;24.48;;
44704;SDS011;30431;48.520;9.046;2024-03-07T00:55:24;37.30;;;25.73;;
44704;SDS011;30431;48.520;9.046;2024-03-07T00:57:53;37.80;;;27.25;;
44704;SDS011;30431;48.520;9.046;2024-03-07T01:00:20;39.58;;;25.80;;
44704;SDS011;30431;48.520;9.046;2024-03-07T01:02:48;37.35;;;27.05;;
44704;SDS011;30431;48.520;9.046;2024-03-07T01:05:15;32.88;;;25.58;;
44704;SDS011;30431;48.520;9.046;2024-03-07T01:07:44;38.40;;;27.00;;
44704;SDS011;30431;48.520;9.046;2024-03-07T01:10:13;36.92;;;27.38;;
44704;SDS011;30431;48.520;9.046;2024-03-07T01:12:43;37.65;;;26.65;;
44704;SDS011;30431;48.520;9.046;2024-03-07T01:15:14;37.17;;;26.88;;
44704;SDS011;30431;48.520;9.046;2024-03-07T01:17:45;39.55;;;27.95;;
44704;SDS011;30431;48.520;9.046;2024-03-07T01:22:39;39.35;;;26.70;;
44704;SDS011;30431;48.520;9.046;2024-03-07T01:25:06;37.05;;;27.73;;
44704;SDS011;30431;48.520;9.046;2024-03-07T01:27:33;35.90;;;27.25;;
44704;SDS011;30431;48.520;9.046;2024-03-07T01:30:00;39.45;;;27.83;;
44704;SDS011;30431;48.520;9.046;2024-03-07T01:32:28;38.45;;;28.48;;
44704;SDS011;30431;48.520;9.046;2024-03-07T01:34:56;37.40;;;27.90;;
44704;SDS011;30431;48.520;9.046;2024-03-07T01:37:22;40.15;;;28.92;;
44704;SDS011;30431;48.520;9.046;2024-03-07T01:39:50;41.53;;;27.00;;
44704;SDS011;30431;48.520;9.046;2024-03-07T01:42:16;39.00;;;29.05;;
44704;SDS011;30431;48.520;9.046;2024-03-07T01:44:43;36.22;;;27.00;;
44704;SDS011;30431;48.520;9.046;2024-03-07T01:47:14;42.35;;;29.08;;
44704;SDS011;30431;48.520;9.046;2024-03-07T01:49:42;42.08;;;30.15;;
44704;SDS011;30431;48.520;9.046;2024-03-07T01:52:13;41.47;;;29.60;;
44704;SDS011;30431;48.520;9.046;2024-03-07T01:54:43;39.10;;;29.85;;
44704;SDS011;30431;48.520;9.046;2024-03-07T01:57:10;41.58;;;30.48;;
44704;SDS011;30431;48.520;9.046;2024-03-07T01:59:42;40.30;;;30.10;;
44704;SDS011;30431;48.520;9.046;2024-03-07T02:02:10;41.38;;;30.52;;
44704;SDS011;30431;48.520;9.046;2024-03-07T02:04:41;41.55;;;30.75;;
44704;SDS011;30431;48.520;9.046;2024-03-07T02:07:08;42.10;;;30.83;;
44704;SDS011;30431;48.520;9.046;2024-03-07T02:09:38;42.50;;;31.73;;
44704;SDS011;30431;48.520;9.046;2024-03-07T02:12:05;42.25;;;31.63;;
44704;SDS011;30431;48.520;9.046;2024-03-07T02:14:32;44.08;;;31.55;;
44704;SDS011;30431;48.520;9.046;2024-03-07T02:16:59;41.47;;;32.03;;
44704;SDS011;30431;48.520;9.046;2024-03-07T02:21:53;43.97;;;31.92;;
44704;SDS011;30431;48.520;9.046;2024-03-07T02:24:20;46.00;;;32.88;;
44704;SDS011;30431;48.520;9.046;2024-03-07T02:26:50;41.38;;;31.90;;
44704;SDS011;30431;48.520;9.046;2024-03-07T02:29:20;42.50;;;31.65;;
44704;SDS011;30431;48.520;9.046;2024-03-07T02:31:47;46.25;;;32.83;;
44704;SDS011;30431;48.520;9.046;2024-03-07T02:34:14;44.08;;;32.45;;
44704;SDS011;30431;48.520;9.046;2024-03-07T02:36:41;47.88;;;34.35;;
44704;SDS011;30431;48.520;9.046;2024-03-07T02:39:08;46.53;;;32.13;;
44704;SDS011;30431;48.520;9.046;2024-03-07T02:41:36;42.92;;;32.67;;
44704;SDS011;30431;48.520;9.046;2024-03-07T02:44:05;46.83;;;35.47;;
44704;SDS011;30431;48.520;9.046;2024-03-07T02:46:32;47.97;;;35.22;;
44704;SDS011;30431;48.520;9.046;2024-03-07T02:48:59;44.97;;;34.10;;
44704;SDS011;30431;48.520;9.046;2024-03-07T02:53:56;46.15;;;33.40;;
44704;SDS011;30431;48.520;9.046;2024-03-07T02:56:23;50.85;;;34.55;;
44704;SDS011;30431;48.520;9.046;2024-03-07T02:58:53;44.38;;;34.30;;
44704;SDS011;30431;48.520;9.046;2024-03-07T03:01:22;46.70;;;35.08;;
44704;SDS011;30431;48.520;9.046;2024-03-07T03:03:51;48.22;;;36.40;;
44704;SDS011;30431;48.520;9.046;2024-03-07T03:06:18;47.35;;;34.88;;
44704;SDS011;30431;48.520;9.046;2024-03-07T03:08:47;52.55;;;36.05;;
44704;SDS011;30431;48.520;9.046;2024-03-07T03:11:17;47.72;;;34.95;;
44704;SDS011;30431;48.520;9.046;2024-03-07T03:13:46;48.25;;;34.33;;
44704;SDS011;30431;48.520;9.046;2024-03-07T03:16:17;47.47;;;35.55;;
44704;SDS011;30431;48.520;9.046;2024-03-07T03:18:59;44.63;;;34.20;;
44704;SDS011;30431;48.520;9.046;2024-03-07T03:21:26;47.90;;;35.72;;
44704;SDS011;30431;48.520;9.046;2024-03-07T03:23:54;50.30;;;35.72;;
44704;SDS011;30431;48.520;9.046;2024-03-07T03:28:51;47.30;;;34.22;;
44704;SDS011;30431;48.520;9.046;2024-03-07T03:31:19;46.20;;;34.67;;
44704;SDS011;30431;48.520;9.046;2024-03-07T03:33:46;50.05;;;37.17;;
44704;SDS011;30431;48.520;9.046;2024-03-07T03:36:13;48.85;;;36.45;;
44704;SDS011;30431;48.520;9.046;2024-03-07T03:38:42;56.65;;;37.45;;
44704;SDS011;30431;48.520;9.046;2024-03-07T03:41:15;48.90;;;36.75;;
44704;SDS011;30431;48.520;9.046;2024-03-07T03:43:43;47.83;;;37.20;;
44704;SDS011;30431;48.520;9.046;2024-03-07T03:48:40;53.88;;;38.08;;
44704;SDS011;30431;48.520;9.046;2024-03-07T03:51:10;48.83;;;36.22;;
44704;SDS011;30431;48.520;9.046;2024-03-07T03:53:41;51.90;;;38.10;;
44704;SDS011;30431;48.520;9.046;2024-03-07T03:56:09;56.08;;;38.40;;
44704;SDS011;30431;48.520;9.046;2024-03-07T03:58:41;52.33;;;36.67;;
44704;SDS011;30431;48.520;9.046;2024-03-07T04:01:09;54.58;;;39.95;;
44704;SDS011;30431;48.520;9.046;2024-03-07T04:03:40;58.53;;;39.10;;
44704;SDS011;30431;48.520;9.046;2024-03-07T04:06:06;58.25;;;39.70;;
44704;SDS011;30431;48.520;9.046;2024-03-07T04:08:34;55.67;;;39.45;;
44704;SDS011;30431;48.520;9.046;2024-03-07T04:11:03;54.33;;;40.05;;
44704;SDS011;30431;48.520;9.046;2024-03-07T04:13:31;53.35;;;39.25;;
44704;SDS011;30431;48.520;9.046;2024-03-07T04:16:00;56.22;;;38.35;;
44704;SDS011;30431;48.520;9.046;2024-03-07T04:18:27;51.65;;;37.97;;
44704;SDS011;30431;48.520;9.046;2024-03-07T04:20:54;52.75;;;39.08;;
44704;SDS011;30431;48.520;9.046;2024-03-07T04:23:21;58.58;;;37.47;;
44704;SDS011;30431;48.520;9.046;2024-03-07T04:25:48;56.20;;;41.00;;
44704;SDS011;30431;48.520;9.046;2024-03-07T04:28:19;58.60;;;39.70;;
44704;SDS011;30431;48.520;9.046;2024-03-07T04:30:48;55.67;;;41.22;;
44704;SDS011;30431;48.520;9.046;2024-03-07T04:33:15;56.78;;;41.05;;
44704;SDS011;30431;48.520;9.046;2024-03-07T04:35:43;63.45;;;43.10;;
44704;SDS011;30431;48.520;9.046;2024-03-07T04:38:10;64.45;;;43.40;;
44704;SDS011;30431;48.520;9.046;2024-03-07T04:40:42;61.15;;;43.53;;
44704;SDS011;30431;48.520;9.046;2024-03-07T04:43:09;63.67;;;43.95;;
44704;SDS011;30431;48.520;9.046;2024-03-07T04:48:06;62.92;;;42.60;;
44704;SDS011;30431;48.520;9.046;2024-03-07T04:50:35;63.50;;;44.15;;
44704;SDS011;30431;48.520;9.046;2024-03-07T04:53:02;63.15;;;43.83;;
44704;SDS011;30431;48.520;9.046;2024-03-07T04:55:29;58.08;;;42.55;;
44704;SDS011;30431;48.520;9.046;2024-03-07T04:57:58;68.05;;;45.10;;
44704;SDS011;30431;48.520;9.046;2024-03-07T05:00:27;73.05;;;46.00;;
44704;SDS011;30431;48.520;9.046;2024-03-07T05:02:58;65.15;;;44.72;;
44704;SDS011;30431;48.520;9.046;2024-03-07T05:05:27;66.90;;;44.75;;
44704;SDS011;30431;48.520;9.046;2024-03-07T05:07:54;62.85;;;44.38;;
44704;SDS011;30431;48.520;9.046;2024-03-07T05:10:24;61.58;;;45.25;;
44704;SDS011;30431;48.520;9.046;2024-03-07T05:12:56;59.42;;;42.22;;
44704;SDS011;30431;48.520;9.046;2024-03-07T05:15:31;63.70;;;41.40;;
44704;SDS011;30431;48.520;9.046;2024-03-07T05:18:03;60.80;;;41.85;;
44704;SDS011;30431;48.520;9.046;2024-03-07T05:20:33;55.90;;;40.97;;
44704;SDS011;30431;48.520;9.046;2024-03-07T05:23:00;54.63;;;40.97;;
44704;SDS011;30431;48.520;9.046;2024-03-07T05:25:30;60.22;;;41.15;;
44704;SDS011;30431;48.520;9.046;2024-03-07T05:27:57;59.30;;;40.38;;
44704;SDS011;30431;48.520;9.046;2024-03-07T05:30:25;55.10;;;40.17;;
44704;SDS011;30431;48.520;9.046;2024-03-07T05:32:52;55.40;;;39.90;;
44704;SDS011;30431;48.520;9.046;2024-03-07T05:35:20;55.80;;;39.30;;
44704;SDS011;30431;48.520;9.046;2024-03-07T05:37:50;54.33;;;39.42;;
44704;SDS011;30431;48.520;9.046;2024-03-07T05:40:20;53.97;;;40.45;;
44704;SDS011;30431;48.520;9.046;2024-03-07T05:42:47;53.25;;;39.88;;
44704;SDS011;30431;48.520;9.046;2024-03-07T05:45:17;48.97;;;36.97;;
44704;SDS011;30431;48.520;9.046;2024-03-07T05:47:44;52.78;;;39.80;;
44704;SDS011;30431;48.520;9.046;2024-03-07T05:50:14;50.70;;;38.72;;
44704;SDS011;30431;48.520;9.046;2024-03-07T05:52:43;52.00;;;37.60;;
44704;SDS011;30431;48.520;9.046;2024-03-07T05:55:10;51.58;;;36.55;;
44704;SDS011;30431;48.520;9.046;2024-03-07T05:57:39;48.00;;;35.40;;
44704;SDS011;30431;48.520;9.046;2024-03-07T06:00:12;47.88;;;34.33;;
44704;SDS011;30431;48.520;9.046;2024-03-07T06:02:41;50.67;;;37.28;;
44704;SDS011;30431;48.520;9.046;2024-03-07T06:05:08;45.05;;;33.90;;
44704;SDS011;30431;48.520;9.046;2024-03-07T06:07:42;45.13;;;34.15;;
44704;SDS011;30431;48.520;9.046;2024-03-07T06:10:10;47.80;;;34.75;;
44704;SDS011;30431;48.520;9.046;2024-03-07T06:12:37;48.05;;;33.65;;
44704;SDS011;30431;48.520;9.046;2024-03-07T06:15:22;46.15;;;34.08;;
44704;SDS011;30431;48.520;9.046;2024-03-07T06:17:49;47.97;;;34.70;;
44704;SDS011;30431;48.520;9.046;2024-03-07T06:20:16;44.80;;;33.17;;
44704;SDS011;30431;48.520;9.046;2024-03-07T06:22:54;47.22;;;34.42;;
44704;SDS011;30431;48.520;9.046;2024-03-07T06:25:25;42.67;;;33.75;;
44704;SDS011;30431;48.520;9.046;2024-03-07T06:28:12;51.85;;;34.88;;
44704;SDS011;30431;48.520;9.046;2024-03-07T06:30:43;45.10;;;33.08;;
44704;SDS011;30431;48.520;9.046;2024-03-07T06:33:11;42.35;;;31.40;;
44704;SDS011;30431;48.520;9.046;2024-03-07T06:35:39;47.22;;;33.80;;
44704;SDS011;30431;48.520;9.046;2024-03-07T06:38:08;43.78;;;34.00;;
44704;SDS011;30431;48.520;9.046;2024-03-07T06:40:39;42.65;;;32.05;;
44704;SDS011;30431;48.520;9.046;2024-03-07T06:43:09;43.97;;;32.38;;
44704;SDS011;30431;48.520;9.046;2024-03-07T06:45:40;40.72;;;30.80;;
44704;SDS011;30431;48.520;9.046;2024-03-07T06:48:08;41.78;;;29.95;;
44704;SDS011;30431;48.520;9.046;2024-03-07T06:50:36;41.95;;;30.13;;
44704;SDS011;30431;48.520;9.046;2024-03-07T06:53:04;39.53;;;29.58;;
44704;SDS011;30431;48.520;9.046;2024-03-07T06:55:34;42.88;;;30.00;;
44704;SDS011;30431;48.520;9.046;2024-03-07T06:58:04;36.42;;;28.10;;
44704;SDS011;30431;48.520;9.046;2024-03-07T07:03:04;42.72;;;28.38;;
44704;SDS011;30431;48.520;9.046;2024-03-07T07:05:36;48.03;;;31.40;;
44704;SDS011;30431;48.520;9.046;2024-03-07T07:08:07;40.55;;;28.63;;
44704;SDS011;30431;48.520;9.046;2024-03-07T07:10:35;42.28;;;28.52;;
44704;SDS011;30431;48.520;9.046;2024-03-07T07:13:02;39.55;;;27.55;;
44704;SDS011;30431;48.520;9.046;2024-03-07T07:15:31;39.20;;;28.52;;
44704;SDS011;30431;48.520;9.046;2024-03-07T07:17:58;38.58;;;28.48;;
44704;SDS011;30431;48.520;9.046;2024-03-07T07:20:26;35.78;;;26.80;;
44704;SDS011;30431;48.520;9.046;2024-03-07T07:22:53;38.17;;;27.73;;
44704;SDS011;30431;48.520;9.046;2024-03-07T07:25:21;37.42;;;27.45;;
44704;SDS011;30431;48.520;9.046;2024-03-07T07:27:49;37.03;;;28.13;;
44704;SDS011;30431;48.520;9.046;2024-03-07T07:30:20;38.25;;;28.27;;
44704;SDS011;30431;48.520;9.046;2024-03-07T07:32:55;37.03;;;27.98;;
44704;SDS011;30431;48.520;9.046;2024-03-07T07:35:22;37.75;;;26.88;;
44704;SDS011;30431;48.520;9.046;2024-03-07T07:37:50;41.85;;;27.23;;
44704;SDS011;30431;48.520;9.046;2024-03-07T07:40:23;33.72;;;26.35;;
44704;SDS011;30431;48.520;9.046;2024-03-07T07:42:53;34.55;;;25.98;;
44704;SDS011;30431;48.520;9.046;2024-03-07T07:45:21;37.60;;;26.15;;
44704;SDS011;30431;48.520;9.046;2024-03-07T07:47:51;35.53;;;25.15;;
44704;SDS011;30431;48.520;9.046;2024-03-07T07:50:25;37.85;;;27.55;;
44704;SDS011;30431;48.520;9.046;2024-03-07T07:52:58;38.95;;;27.40;;
44704;SDS011;30431;48.520;9.046;2024-03-07T07:55:28;43.13;;;26.90;;
44704;SDS011;30431;48.520;9.046;2024-03-07T07:57:59;39.13;;;26.75;;
44704;SDS011;30431;48.520;9.046;2024-03-07T08:00:28;39.30;;;27.73;;
44704;SDS011;30431;48.520;9.046;2024-03-07T08:05:28;42.15;;;28.45;;
44704;SDS011;30431;48.520;9.046;2024-03-07T08:08:03;41.75;;;27.50;;
44704;SDS011;30431;48.520;9.046;2024-03-07T08:10:34;40.47;;;27.40;;
44704;SDS011;30431;48.520;9.046;2024-03-07T08:13:05;42.75;;;29.95;;
44704;SDS011;30431;48.520;9.046;2024-03-07T08:15:37;40.88;;;28.67;;
44704;SDS011;30431;48.520;9.046;2024-03-07T08:18:07;42.97;;;29.40;;
44704;SDS011;30431;48.520;9.046;2024-03-07T08:20:39;43.70;;;28.90;;
44704;SDS011;30431;48.520;9.046;2024-03-07T08:23:08;45.97;;;29.40;;
44704;SDS011;30431;48.520;9.046;2024-03-07T08:25:36;41.72;;;28.75;;
44704;SDS011;30431;48.520;9.046;2024-03-07T08:28:06;47.83;;;30.95;;
44704;SDS011;30431;48.520;9.046;2024-03-07T08:30:33;45.72;;;28.95;;
44704;SDS011;30431;48.520;9.046;2024-03-07T08:33:01;42.63;;;28.05;;
44704;SDS011;30431;48.520;9.046;2024-03-07T08:35:32;37.17;;;27.67;;
44704;SDS011;30431;48.520;9.046;2024-03-07T08:38:02;43.70;;;29.73;;
44704;SDS011;30431;48.520;9.046;2024-03-07T08:40:30;50.35;;;29.65;;
44704;SDS011;30431;48.520;9.046;2024-03-07T08:43:00;45.90;;;29.10;;
44704;SDS011;30431;48.520;9.046;2024-03-07T08:45:28;44.40;;;29.42;;
44704;SDS011;30431;48.520;9.046;2024-03-07T08:47:56;48.75;;;30.13;;
44704;SDS011;30431;48.520;9.046;2024-03-07T08:50:27;52.05;;;29.58;;
44704;SDS011;30431;48.520;9.046;2024-03-07T08:52:58;42.35;;;29.50;;
44704;SDS011;30431;48.520;9.046;2024-03-07T08:55:27;47.00;;;29.95;;
44704;SDS011;30431;48.520;9.046;2024-03-07T08:57:57;43.83;;;30.38;;
44704;SDS011;30431;48.520;9.046;2024-03-07T09:00:24;44.53;;;30.42;;
44704;SDS011;30431;48.520;9.046;2024-03-07T09:02:53;40.50;;;29.17;;
44704;SDS011;30431;48.520;9.046;2024-03-07T09:05:26;44.40;;;29.00;;
44704;SDS011;30431;48.520;9.046;2024-03-07T09:07:56;46.75;;;31.33;;
44704;SDS011;30431;48.520;9.046;2024-03-07T09:10:27;40.97;;;27.70;;
44704;SDS011;30431;48.520;9.046;2024-03-07T09:12:57;42.22;;;30.58;;
44704;SDS011;30431;48.520;9.046;2024-03-07T09:15:25;42.35;;;29.05;;
44704;SDS011;30431;48.520;9.046;2024-03-07T09:17:54;51.22;;;30.17;;
44704;SDS011;30431;48.520;9.046;2024-03-07T09:20:31;41.38;;;28.65;;
44704;SDS011;30431;48.520;9.046;2024-03-07T09:22:58;46.35;;;28.77;;
44704;SDS011;30431;48.520;9.046;2024-03-07T09:25:26;44.15;;;28.25;;
44704;SDS011;30431;48.520;9.046;2024-03-07T09:27:56;43.05;;;27.42;;
44704;SDS011;30431;48.520;9.046;2024-03-07T09:30:26;44.47;;;28.60;;
44704;SDS011;30431;48.520;9.046;2024-03-07T09:32:57;40.03;;;28.20;;
44704;SDS011;30431;48.520;9.046;2024-03-07T09:35:30;42.05;;;28.42;;
44704;SDS011;30431;48.520;9.046;2024-03-07T09:37:58;49.08;;;30.00;;
44704;SDS011;30431;48.520;9.046;2024-03-07T09:42:53;47.03;;;31.20;;
44704;SDS011;30431;48.520;9.046;2024-03-07T09:45:23;44.30;;;30.67;;
44704;SDS011;30431;48.520;9.046;2024-03-07T09:47:55;48.67;;;30.27;;
44704;SDS011;30431;48.520;9.046;2024-03-07T09:50:24;39.65;;;29.40;;
44704;SDS011;30431;48.520;9.046;2024-03-07T09:52:57;41.30;;;29.88;;
44704;SDS011;30431;48.520;9.046;2024-03-07T09:55:26;45.90;;;29.27;;
44704;SDS011;30431;48.520;9.046;2024-03-07T10:00:26;44.55;;;29.40;;
44704;SDS011;30431;48.520;9.046;2024-03-07T10:05:28;47.45;;;30.75;;
44704;SDS011;30431;48.520;9.046;2024-03-07T10:07:58;48.85;;;32.45;;
44704;SDS011;30431;48.520;9.046;2024-03-07T10:10:28;46.78;;;31.05;;
44704;SDS011;30431;48.520;9.046;2024-03-07T10:13:00;51.00;;;33.45;;
44704;SDS011;30431;48.520;9.046;2024-03-07T10:15:30;45.25;;;31.98;;
44704;SDS011;30431;48.520;9.046;2024-03-07T10:18:01;47.45;;;32.05;;
44704;SDS011;30431;48.520;9.046;2024-03-07T10:20:42;51.20;;;31.48;;
44704;SDS011;30431;48.520;9.046;2024-03-07T10:23:11;45.15;;;31.25;;
44704;SDS011;30431;48.520;9.046;2024-03-07T10:25:40;47.08;;;31.33;;
44704;SDS011;30431;48.520;9.046;2024-03-07T10:28:10;44.35;;;32.53;;
44704;SDS011;30431;48.520;9.046;2024-03-07T10:33:08;46.50;;;30.67;;
44704;SDS011;30431;48.520;9.046;2024-03-07T10:35:36;45.55;;;31.23;;
44704;SDS011;30431;48.520;9.046;2024-03-07T10:38:05;44.70;;;30.77;;
44704;SDS011;30431;48.520;9.046;2024-03-07T10:40:34;42.47;;;30.02;;
44704;SDS011;30431;48.520;9.046;2024-03-07T10:43:09;42.70;;;29.52;;
44704;SDS011;30431;48.520;9.046;2024-03-07T10:45:41;43.08;;;29.77;;
44704;SDS011;30431;48.520;9.046;2024-03-07T10:48:14;42.33;;;29.25;;
44704;SDS011;30431;48.520;9.046;2024-03-07T10:53:39;41.25;;;29.65;;
44704;SDS011;30431;48.520;9.046;2024-03-07T10:59:25;44.97;;;30.42;;
44704;SDS011;30431;48.520;9.046;2024-03-07T11:04:31;43.22;;;30.98;;
44704;SDS011;30431;48.520;9.046;2024-03-07T11:07:03;38.33;;;29.58;;
44704;SDS011;30431;48.520;9.046;2024-03-07T11:09:30;45.70;;;29.48;;
44704;SDS011;30431;48.520;9.046;2024-03-07T11:12:00;42.45;;;29.52;;
44704;SDS011;30431;48.520;9.046;2024-03-07T11:14:33;43.88;;;31.13;;
44704;SDS011;30431;48.520;9.046;2024-03-07T11:17:03;38.03;;;28.08;;
44704;SDS011;30431;48.520;9.046;2024-03-07T11:19:34;42.15;;;28.15;;
44704;SDS011;30431;48.520;9.046;2024-03-07T11:22:06;40.40;;;26.65;;
44704;SDS011;30431;48.520;9.046;2024-03-07T11:27:39;34.22;;;24.83;;
44704;SDS011;30431;48.520;9.046;2024-03-07T11:30:11;32.92;;;26.13;;
44704;SDS011;30431;48.520;9.046;2024-03-07T11:32:39;38.03;;;25.33;;
44704;SDS011;30431;48.520;9.046;2024-03-07T11:35:13;37.22;;;25.65;;
44704;SDS011;30431;48.520;9.046;2024-03-07T11:37:41;33.67;;;24.75;;
44704;SDS011;30431;48.520;9.046;2024-03-07T11:42:54;35.83;;;25.00;;
44704;SDS011;30431;48.520;9.046;2024-03-07T11:45:26;37.08;;;25.88;;
44704;SDS011;30431;48.520;9.046;2024-03-07T11:47:56;37.13;;;25.75;;
44704;SDS011;30431;48.520;9.046;2024-03-07T11:50:52;38.60;;;26.42;;
44704;SDS011;30431;48.520;9.046;2024-03-07T11:53:21;44.17;;;26.73;;
44704;SDS011;30431;48.520;9.046;2024-03-07T11:55:49;36.70;;;25.65;;
44704;SDS011;30431;48.520;9.046;2024-03-07T11:58:20;39.42;;;28.05;;
44704;SDS011;30431;48.520;9.046;2024-03-07T12:00:49;37.65;;;25.65;;
44704;SDS011;30431;48.520;9.046;2024-03-07T12:03:20;39.05;;;26.85;;
44704;SDS011;30431;48.520;9.046;2024-03-07T12:05:49;38.65;;;26.05;;
44704;SDS011;30431;48.520;9.046;2024-03-07T12:08:18;39.45;;;26.33;;
44704;SDS011;30431;48.520;9.046;2024-03-07T12:10:52;40.10;;;26.25;;
44704;SDS011;30431;48.520;9.046;2024-03-07T12:13:25;37.55;;;26.92;;
44704;SDS011;30431;48.520;9.046;2024-03-07T12:15:56;37.80;;;26.67;;
44704;SDS011;30431;48.520;9.046;2024-03-07T12:18:31;36.75;;;26.17;;
44704;SDS011;30431;48.520;9.046;2024-03-07T12:20:59;37.42;;;25.55;;
44704;SDS011;30431;48.520;9.046;2024-03-07T12:23:29;39.67;;;24.95;;
44704;SDS011;30431;48.520;9.046;2024-03-07T12:28:32;38.15;;;24.83;;
44704;SDS011;30431;48.520;9.046;2024-03-07T12:31:05;41.78;;;25.90;;
44704;SDS011;30431;48.520;9.046;2024-03-07T12:33:42;39.58;;;26.05;;
44704;SDS011;30431;48.520;9.046;2024-03-07T12:36:16;36.47;;;24.33;;
44704;SDS011;30431;48.520;9.046;2024-03-07T12:41:13;34.83;;;25.80;;
44704;SDS011;30431;48.520;9.046;2024-03-07T12:43:43;36.90;;;26.08;;
44704;SDS011;30431;48.520;9.046;2024-03-07T12:46:13;32.20;;;24.80;;
44704;SDS011;30431;48.520;9.046;2024-03-07T12:48:43;34.15;;;25.73;;
44704;SDS011;30431;48.520;9.046;2024-03-07T12:51:15;37.80;;;24.10;;
44704;SDS011;30431;48.520;9.046;2024-03-07T12:53:50;36.22;;;24.60;;
44704;SDS011;30431;48.520;9.046;2024-03-07T12:56:20;36.42;;;24.30;;
44704;SDS011;30431;48.520;9.046;2024-03-07T12:58:47;39.47;;;25.40;;
44704;SDS011;30431;48.520;9.046;2024-03-07T13:01:17;34.90;;;25.08;;
44704;SDS011;30431;48.520;9.046;2024-03-07T13:03:47;37.88;;;25.55;;
44704;SDS011;30431;48.520;9.046;2024-03-07T13:06:16;36.53;;;24.52;;
44704;SDS011;30431;48.520;9.046;2024-03-07T13:08:58;33.83;;;23.23;;
44704;SDS011;30431;48.520;9.046;2024-03-07T13:11:29;33.42;;;23.95;;
44704;SDS011;30431;48.520;9.046;2024-03-07T13:14:02;33.03;;;23.77;;
44704;SDS011;30431;48.520;9.046;2024-03-07T13:16:29;32.90;;;23.33;;
44704;SDS011;30431;48.520;9.046;2024-03-07T13:18:58;50.20;;;31.33;;
44704;SDS011;30431;48.520;9.046;2024-03-07T13:21:28;36.55;;;25.55;;
44704;SDS011;30431;48.520;9.046;2024-03-07T13:24:00;38.70;;;25.77;;
44704;SDS011;30431;48.520;9.046;2024-03-07T13:26:27;38.67;;;24.38;;
44704;SDS011;30431;48.520;9.046;2024-03-07T13:28:58;36.50;;;24.20;;
44704;SDS011;30431;48.520;9.046;2024-03-07T13:31:37;34.00;;;24.60;;
44704;SDS011;30431;48.520;9.046;2024-03-07T13:34:09;37.80;;;25.20;;
44704;SDS011;30431;48.520;9.046;2024-03-07T13:36:39;40.88;;;25.60;;
44704;SDS011;30431;48.520;9.046;2024-03-07T13:39:10;40.15;;;26.45;;
44704;SDS011;30431;48.520;9.046;2024-03-07T13:41:38;40.35;;;26.17;;
44704;SDS011;30431;48.520;9.046;2024-03-07T13:46:32;39.83;;;27.10;;
44704;SDS011;30431;48.520;9.046;2024-03-07T13:49:02;40.78;;;27.58;;
44704;SDS011;30431;48.520;9.046;2024-03-07T13:51:45;37.90;;;26.55;;
44704;SDS011;30431;48.520;9.046;2024-03-07T13:54:19;43.05;;;28.10;;
44704;SDS011;30431;48.520;9.046;2024-03-07T14:21:52;44.42;;;30.25;;
44704;SDS011;30431;48.520;9.046;2024-03-07T14:27:18;38.75;;;29.20;;
44704;SDS011;30431;48.520;9.046;2024-03-07T14:29:59;39.75;;;27.08;;
44704;SDS011;30431;48.520;9.046;2024-03-07T14:32:56;42.90;;;29.25;;
44704;SDS011;30431;48.520;9.046;2024-03-07T14:38:25;39.03;;;28.30;;
44704;SDS011;30431;48.520;9.046;2024-03-07T14:41:10;39.47;;;28.55;;
44704;SDS011;30431;48.520;9.046;2024-03-07T14:43:41;37.95;;;28.20;;
44704;SDS011;30431;48.520;9.046;2024-03-07T14:46:09;32.90;;;25.38;;
44704;SDS011;30431;48.520;9.046;2024-03-07T14:48:39;36.13;;;27.33;;
44704;SDS011;30431;48.520;9.046;2024-03-07T14:51:25;36.05;;;26.75;;
44704;SDS011;30431;48.520;9.046;2024-03-07T14:54:07;40.03;;;27.85;;
44704;SDS011;30431;48.520;9.046;2024-03-07T14:56:35;35.38;;;25.98;;
44704;SDS011;30431;48.520;9.046;2024-03-07T14:59:15;33.17;;;25.38;;
44704;SDS011;30431;48.520;9.046;2024-03-07T15:01:46;32.75;;;24.70;;
44704;SDS011;30431;48.520;9.046;2024-03-07T15:06:50;31.13;;;24.50;;
44704;SDS011;30431;48.520;9.046;2024-03-07T15:09:19;34.25;;;24.77;;
44704;SDS011;30431;48.520;9.046;2024-03-07T15:12:02;34.28;;;25.23;;
44704;SDS011;30431;48.520;9.046;2024-03-07T15:14:34;34.60;;;25.38;;
44704;SDS011;30431;48.520;9.046;2024-03-07T15:17:09;34.55;;;25.10;;
44704;SDS011;30431;48.520;9.046;2024-03-07T15:26:17;33.70;;;25.45;;
44704;SDS011;30431;48.520;9.046;2024-03-07T15:35:05;34.15;;;25.15;;
44704;SDS011;30431;48.520;9.046;2024-03-07T15:38:01;36.05;;;25.83;;
44704;SDS011;30431;48.520;9.046;2024-03-07T15:42:57;35.22;;;24.13;;
44704;SDS011;30431;48.520;9.046;2024-03-07T15:48:16;34.33;;;26.13;;
44704;SDS011;30431;48.520;9.046;2024-03-07T15:50:50;37.10;;;26.08;;
44704;SDS011;30431;48.520;9.046;2024-03-07T15:53:19;34.33;;;23.73;;
44704;SDS011;30431;48.520;9.046;2024-03-07T15:56:31;34.20;;;23.88;;
44704;SDS011;30431;48.520;9.046;2024-03-07T15:58:59;33.55;;;23.52;;
44704;SDS011;30431;48.520;9.046;2024-03-07T16:01:26;38.78;;;25.33;;
44704;SDS011;30431;48.520;9.046;2024-03-07T16:03:54;31.15;;;22.20;;
44704;SDS011;30431;48.520;9.046;2024-03-07T16:06:21;30.70;;;22.42;;
44704;SDS011;30431;48.520;9.046;2024-03-07T16:08:49;37.00;;;24.00;;
44704;SDS011;30431;48.520;9.046;2024-03-07T16:13:51;31.75;;;22.67;;
44704;SDS011;30431;48.520;9.046;2024-03-07T16:16:19;34.83;;;22.65;;
44704;SDS011;30431;48.520;9.046;2024-03-07T16:18:47;30.77;;;22.25;;
44704;SDS011;30431;48.520;9.046;2024-03-07T16:21:31;28.75;;;22.05;;
44704;SDS011;30431;48.520;9.046;2024-03-07T16:23:59;31.35;;;22.70;;